Time;durP1;ratioP1;P1;durP2;ratioP2;P2;SDS_P1;SDS_P2;PMS_P1;PMS_P2;Temp;Humidity;BMP_temperature;BMP_pressure;BME280_temperature;BME280_humidity;BME280_pressure;Samples;Min_cycle;Max_cycle;Signal;HPM_P1;HPM_P2
2022/08/03 00:02:13;;;;;;;3.60;2.60;;;;;;;20.53;57.78;98664.66;5003183;28;20324;-58
2022/08/03 00:04:40;;;;;;;3.33;3.03;;;;;;;20.49;58.45;98666.91;4986171;28;20735;-57
2022/08/03 00:07:06;;;;;;;4.47;2.60;;;;;;;20.42;58.49;98671.44;5003263;28;20234;-58
2022/08/03 00:09:33;;;;;;;3.00;2.70;;;;;;;20.33;58.68;98662.97;4999360;28;20233;-58
2022/08/03 00:12:00;;;;;;;4.37;3.00;;;;;;;20.28;58.97;98667.25;4985726;28;20618;-58
2022/08/03 00:14:27;;;;;;;3.43;3.13;;;;;;;20.33;59.20;98662.13;5006093;28;20227;-58
2022/08/03 00:16:55;;;;;;;3.30;3.00;;;;;;;20.25;59.07;98660.56;4996605;28;20233;-57
2022/08/03 00:19:21;;;;;;;3.30;2.70;;;;;;;20.27;59.30;98662.97;5005331;28;20223;-58
2022/08/03 00:21:48;;;;;;;5.20;3.03;;;;;;;20.30;58.94;98662.56;5003478;28;20752;-58
2022/08/03 00:24:15;;;;;;;2.70;2.50;;;;;;;20.22;59.76;98658.34;5003884;28;20852;-58
2022/08/03 00:26:42;;;;;;;2.87;2.60;;;;;;;20.16;59.50;98654.69;5002339;28;20622;-58
2022/08/03 00:29:08;;;;;;;3.00;2.70;;;;;;;20.17;59.46;98655.50;5000868;28;20220;-58
2022/08/03 00:31:35;;;;;;;4.03;3.00;;;;;;;20.09;59.71;98655.75;4997856;28;20743;-56
2022/08/03 00:34:03;;;;;;;3.33;2.90;;;;;;;20.03;60.24;98654.78;5005664;28;20202;-57
2022/08/03 00:36:30;;;;;;;6.77;2.97;;;;;;;19.99;60.81;98656.22;5010786;28;20215;-57
2022/08/03 00:38:57;;;;;;;3.83;3.10;;;;;;;19.91;60.27;98650.16;5011452;28;20259;-57
2022/08/03 00:41:24;;;;;;;3.70;2.90;;;;;;;19.93;60.89;98646.47;5012369;28;20241;-57
2022/08/03 00:43:51;;;;;;;5.10;3.17;;;;;;;19.88;60.96;98650.53;5011941;28;20190;-57
2022/08/03 00:46:20;;;;;;;3.17;2.93;;;;;;;19.84;61.19;98653.78;5012115;28;20202;-56
2022/08/03 00:48:47;;;;;;;5.07;2.83;;;;;;;19.87;60.71;98646.25;5011999;28;20230;-57
2022/08/03 00:51:15;;;;;;;4.20;2.97;;;;;;;19.84;61.24;98649.31;5012245;28;20839;-57
2022/08/03 00:53:42;;;;;;;5.17;3.03;;;;;;;19.88;61.70;98645.22;5011828;28;20202;-58
2022/08/03 00:56:09;;;;;;;4.20;2.67;;;;;;;19.80;61.26;98645.47;5009970;28;20202;-59
2022/08/03 00:58:35;;;;;;;3.77;2.93;;;;;;;19.71;61.41;98652.03;5010629;28;20202;-56
2022/08/03 01:01:05;;;;;;;4.10;2.87;;;;;;;19.69;61.85;98641.63;5011896;28;20214;-55
2022/08/03 01:03:32;;;;;;;3.43;3.13;;;;;;;19.69;62.13;98638.97;5012386;28;20259;-55
2022/08/03 01:06:07;;;;;;;3.47;3.13;;;;;;;19.73;62.33;98642.84;5012530;28;20253;-55
2022/08/03 01:08:46;;;;;;;3.30;3.00;;;;;;;19.64;61.70;98644.09;5012046;28;20308;-56
2022/08/03 01:11:21;;;;;;;4.53;3.57;;;;;;;19.61;62.10;98637.41;5010781;28;20193;-55
2022/08/03 01:14:03;;;;;;;5.03;2.80;;;;;;;19.56;61.97;98631.13;5011652;28;20203;-58
2022/08/03 01:16:33;;;;;;;3.67;2.70;;;;;;;19.53;62.65;98627.03;5011669;28;20676;-56
2022/08/03 01:19:10;;;;;;;3.27;2.80;;;;;;;19.51;62.28;98630.94;5006026;28;20223;-56
2022/08/03 01:21:53;;;;;;;5.83;3.10;;;;;;;19.56;62.39;98628.47;5000254;28;20195;-56
2022/08/03 01:24:37;;;;;;;3.50;2.80;;;;;;;19.53;62.35;98619.09;4997051;28;20218;-55
2022/08/03 01:27:08;;;;;;;4.17;2.93;;;;;;;19.51;62.11;98620.34;4994854;28;20194;-56
2022/08/03 01:29:52;;;;;;;4.07;2.80;;;;;;;19.53;62.00;98621.75;4996845;28;20202;-55
2022/08/03 01:32:22;;;;;;;3.80;2.90;;;;;;;19.59;61.96;98618.25;4995772;28;20200;-56
2022/08/03 01:34:55;;;;;;;4.33;3.20;;;;;;;19.59;62.06;98618.25;4995656;28;20203;-56
2022/08/03 01:37:26;;;;;;;3.70;3.10;;;;;;;19.60;61.52;98617.22;4997998;28;20200;-57
2022/08/03 01:39:58;;;;;;;3.53;3.10;;;;;;;19.66;61.39;98625.38;4994131;28;20228;-57
2022/08/03 01:42:26;;;;;;;4.00;2.60;;;;;;;19.64;61.15;98622.13;4994757;28;20203;-57
2022/08/03 01:44:56;;;;;;;3.13;2.83;;;;;;;19.66;62.06;98617.41;4995550;28;20549;-57
2022/08/03 01:47:25;;;;;;;5.33;2.90;;;;;;;19.58;61.75;98619.28;4996431;28;20230;-57
2022/08/03 01:49:54;;;;;;;5.40;2.90;;;;;;;19.50;61.62;98619.50;4992661;28;20589;-57
2022/08/03 01:52:22;;;;;;;3.50;2.73;;;;;;;19.51;61.63;98612.41;4999518;28;20192;-56
2022/08/03 01:54:51;;;;;;;5.13;2.60;;;;;;;19.57;61.33;98612.34;4977633;28;20209;-57
2022/08/03 01:57:19;;;;;;;5.33;2.67;;;;;;;19.55;61.22;98609.09;4996465;28;20832;-57
2022/08/03 01:59:48;;;;;;;5.33;2.90;;;;;;;19.65;61.07;98611.28;4999282;28;20222;-56
2022/08/03 02:02:17;;;;;;;4.37;2.93;;;;;;;19.59;61.68;98610.31;5000109;28;20279;-57
2022/08/03 02:04:47;;;;;;;4.07;2.70;;;;;;;19.49;61.73;98607.28;5001006;28;20204;-56
2022/08/03 02:07:15;;;;;;;2.90;2.60;;;;;;;19.49;61.52;98612.59;5000679;28;20702;-57
2022/08/03 02:09:44;;;;;;;4.70;2.83;;;;;;;19.42;62.52;98601.22;4997574;28;20225;-56
2022/08/03 02:12:13;;;;;;;4.07;3.07;;;;;;;19.34;62.62;98602.28;4999849;28;20218;-57
2022/08/03 02:14:42;;;;;;;3.90;2.90;;;;;;;19.26;62.67;98603.28;4996452;28;20201;-57
2022/08/03 02:17:11;;;;;;;3.10;2.80;;;;;;;19.27;63.20;98606.78;5001575;28;20218;-57
2022/08/03 02:19:39;;;;;;;3.20;2.67;;;;;;;19.18;63.14;98608.81;4999573;28;20213;-57
2022/08/03 02:22:10;;;;;;;3.70;2.90;;;;;;;19.25;62.54;98606.97;4997212;28;20843;-57
2022/08/03 02:24:36;;;;;;;2.87;2.57;;;;;;;19.18;62.38;98606.16;5002462;28;20193;-57
2022/08/03 02:27:07;;;;;;;4.43;3.00;;;;;;;19.18;63.56;98606.16;4998956;28;20881;-57
2022/08/03 02:29:37;;;;;;;4.47;2.83;;;;;;;19.18;63.74;98604.34;4999315;28;20213;-57
2022/08/03 02:32:06;;;;;;;3.47;3.00;;;;;;;19.14;63.85;98607.59;4999852;28;20228;-55
2022/08/03 02:34:35;;;;;;;3.37;3.07;;;;;;;19.08;63.29;98608.44;4994864;28;20209;-56
2022/08/03 02:37:05;;;;;;;3.37;3.07;;;;;;;19.12;63.58;98599.06;4994941;28;20282;-56
2022/08/03 02:39:35;;;;;;;3.47;3.17;;;;;;;19.08;63.14;98598.66;4997285;28;20228;-57
2022/08/03 02:42:02;;;;;;;3.77;2.90;;;;;;;19.11;63.61;98600.91;4998296;28;20707;-56
2022/08/03 02:44:32;;;;;;;2.90;2.70;;;;;;;19.15;63.29;98596.81;4995483;28;20198;-56
2022/08/03 02:47:03;;;;;;;3.37;2.90;;;;;;;19.11;63.76;98597.44;4992983;28;20199;-57
2022/08/03 02:49:32;;;;;;;4.73;2.90;;;;;;;19.03;63.48;98601.94;4992717;28;20270;-57
2022/08/03 02:51:59;;;;;;;4.20;3.00;;;;;;;19.13;63.46;98603.31;4990317;28;20213;-57
2022/08/03 02:54:29;;;;;;;3.40;3.10;;;;;;;19.10;63.19;98601.09;4996900;28;20217;-57
2022/08/03 02:56:57;;;;;;;3.57;3.27;;;;;;;19.03;63.41;98598.47;4990234;28;20186;-57
2022/08/03 02:59:25;;;;;;;3.23;2.93;;;;;;;19.06;63.55;98599.91;4971613;28;20224;-57
2022/08/03 03:01:54;;;;;;;5.90;2.80;;;;;;;18.96;63.90;98590.56;4987245;28;20238;-57
2022/08/03 03:04:22;;;;;;;2.87;2.63;;;;;;;18.93;64.09;98595.41;4994067;28;20206;-57
2022/08/03 03:06:51;;;;;;;3.40;3.10;;;;;;;18.92;64.78;98593.78;4991475;28;20203;-57
2022/08/03 03:09:18;;;;;;;3.20;2.70;;;;;;;18.87;64.42;98586.47;4994616;28;20235;-57
2022/08/03 03:11:50;;;;;;;10.87;3.33;;;;;;;18.83;64.63;98588.69;4993347;28;20211;-57
2022/08/03 03:14:18;;;;;;;5.13;3.10;;;;;;;18.79;64.69;98584.03;4998383;28;20283;-57
2022/08/03 03:16:48;;;;;;;3.87;3.00;;;;;;;18.81;65.42;98582.00;4977327;28;20197;-56
2022/08/03 03:19:16;;;;;;;4.17;3.00;;;;;;;18.73;65.40;98586.50;4996138;28;20224;-57
2022/08/03 03:21:44;;;;;;;5.20;2.80;;;;;;;18.74;66.04;98588.13;4995954;28;20228;-57
2022/08/03 03:24:11;;;;;;;3.83;3.00;;;;;;;18.75;64.99;98578.34;4993334;28;20201;-57
2022/08/03 03:26:39;;;;;;;2.87;2.57;;;;;;;18.82;65.04;98587.06;4996886;28;20701;-57
2022/08/03 03:29:07;;;;;;;3.20;2.90;;;;;;;18.81;64.46;98585.44;4994078;28;20240;-57
2022/08/03 03:31:35;;;;;;;4.33;2.87;;;;;;;18.76;64.50;98579.97;4993524;28;20267;-57
2022/08/03 03:34:02;;;;;;;4.80;3.60;;;;;;;18.72;64.48;98584.88;4997977;28;20214;-56
2022/08/03 03:36:29;;;;;;;4.17;2.90;;;;;;;18.72;64.88;98582.22;4995965;28;20219;-57
2022/08/03 03:38:56;;;;;;;6.07;3.37;;;;;;;18.70;65.19;98584.25;4999569;28;20441;-57
2022/08/03 03:41:24;;;;;;;3.50;3.00;;;;;;;18.71;65.10;98595.63;4995520;28;20215;-56
2022/08/03 03:43:51;;;;;;;4.20;2.93;;;;;;;18.65;65.04;98597.28;5017046;23;20281;-48
2022/08/03 03:46:19;;;;;;;3.80;3.00;;;;;;;18.63;65.48;98598.47;5029080;28;20613;-51
2022/08/03 03:48:46;;;;;;;3.87;3.17;;;;;;;18.57;65.60;98594.84;5030571;28;20270;-51
2022/08/03 03:51:13;;;;;;;3.40;3.00;;;;;;;18.55;65.49;98591.56;5025790;28;20197;-52
2022/08/03 03:53:40;;;;;;;5.53;3.00;;;;;;;18.52;66.04;98595.44;5026044;28;20231;-51
2022/08/03 03:56:06;;;;;;;4.33;3.13;;;;;;;18.56;66.05;98594.00;5030313;28;20671;-51
2022/08/03 03:58:33;;;;;;;5.20;3.10;;;;;;;18.57;66.01;98592.97;5026027;28;20220;-53
2022/08/03 04:01:00;;;;;;;8.27;2.83;;;;;;;18.59;65.95;98596.25;5024416;28;20205;-51
2022/08/03 04:03:29;;;;;;;3.13;2.80;;;;;;;18.58;65.86;98593.81;5027918;28;20960;-52
2022/08/03 04:11:28;;;;;;;3.50;3.00;;;;;;;18.54;66.38;98593.41;5023759;28;20764;-51
2022/08/03 04:13:58;;;;;;;2.97;2.67;;;;;;;18.60;66.34;98597.06;5023192;28;20276;-51
2022/08/03 04:16:31;;;;;;;3.67;3.10;;;;;;;18.66;66.15;98598.91;5028312;28;20187;-51
2022/08/03 04:19:02;;;;;;;3.03;2.60;;;;;;;18.67;65.76;98599.69;5026760;28;20567;-51
2022/08/03 04:21:30;;;;;;;4.00;2.60;;;;;;;18.70;66.21;98601.94;5030623;28;20214;-53
2022/08/03 04:24:01;;;;;;;3.87;2.90;;;;;;;18.70;66.00;98602.75;5023280;28;20253;-51
2022/08/03 04:26:33;;;;;;;3.20;2.90;;;;;;;18.70;66.23;98599.28;5023977;28;20186;-51
2022/08/03 04:29:01;;;;;;;4.60;2.97;;;;;;;18.71;66.25;98607.03;5027429;28;20215;-51
2022/08/03 04:31:29;;;;;;;3.23;2.93;;;;;;;18.75;65.93;98610.06;5027094;28;20264;-51
2022/08/03 04:33:57;;;;;;;4.07;3.10;;;;;;;18.77;66.15;98608.03;5025999;28;20205;-52
2022/08/03 04:36:27;;;;;;;5.93;3.10;;;;;;;18.76;66.03;98613.53;5028797;28;20210;-52
2022/08/03 04:39:02;;;;;;;3.30;2.90;;;;;;;18.76;65.99;98622.28;5023866;28;20219;-51
2022/08/03 04:41:30;;;;;;;3.10;2.60;;;;;;;18.79;66.32;98615.78;5026234;28;20645;-53
2022/08/03 04:44:00;;;;;;;3.47;3.17;;;;;;;18.77;66.21;98615.97;5024871;28;20576;-54
2022/08/03 04:46:31;;;;;;;3.23;2.93;;;;;;;18.78;66.40;98619.44;5021623;28;20182;-52
2022/08/03 04:48:59;;;;;;;4.77;3.10;;;;;;;18.78;66.48;98622.06;5023559;28;20209;-51
2022/08/03 04:51:28;;;;;;;4.67;2.80;;;;;;;18.80;66.85;98623.50;5028929;28;20199;-50
2022/08/03 04:53:54;;;;;;;3.13;2.83;;;;;;;18.84;67.14;98619.41;5027000;28;20195;-50
2022/08/03 04:56:21;;;;;;;2.80;2.60;;;;;;;18.89;67.48;98611.69;5027638;28;20199;-53
2022/08/03 04:58:48;;;;;;;3.27;2.97;;;;;;;18.86;67.16;98621.88;5027829;28;20237;-51
2022/08/03 05:01:33;;;;;;;3.10;2.80;;;;;;;18.88;67.83;98612.69;5028141;28;20706;-51
2022/08/03 05:04:00;;;;;;;3.30;2.73;;;;;;;18.89;67.64;98621.47;5029605;28;20239;-54
2022/08/03 05:06:28;;;;;;;3.90;2.83;;;;;;;18.91;68.36;98613.31;5028107;28;20196;-51
2022/08/03 05:08:55;;;;;;;4.53;3.00;;;;;;;18.93;68.57;98613.91;5023484;28;20219;-51
2022/08/03 05:11:22;;;;;;;3.00;2.70;;;;;;;18.95;67.48;98619.81;5027253;28;20205;-52
2022/08/03 05:13:49;;;;;;;2.93;2.63;;;;;;;18.97;68.13;98623.94;5025269;28;20196;-51
2022/08/03 05:16:16;;;;;;;3.23;2.93;;;;;;;18.98;67.92;98620.25;5023671;28;20197;-51
2022/08/03 05:18:43;;;;;;;4.73;2.90;;;;;;;19.02;67.72;98632.06;5028343;28;20223;-51
2022/08/03 05:21:12;;;;;;;5.93;3.00;;;;;;;19.05;68.02;98627.38;5025877;28;20219;-53
2022/08/03 05:23:41;;;;;;;2.93;2.50;;;;;;;19.07;68.13;98642.00;5025019;28;20187;-51
2022/08/03 05:26:07;;;;;;;3.90;3.07;;;;;;;19.12;67.25;98638.72;5021505;28;20201;-51
2022/08/03 05:28:34;;;;;;;4.07;2.90;;;;;;;19.13;67.45;98643.00;5026470;28;20573;-51
2022/08/03 05:31:01;;;;;;;3.63;3.13;;;;;;;19.17;67.12;98639.75;5028410;28;20201;-52
2022/08/03 05:33:27;;;;;;;3.63;2.90;;;;;;;19.16;67.14;98650.53;5027115;28;20566;-51
2022/08/03 05:35:54;;;;;;;3.43;2.77;;;;;;;19.19;67.57;98652.78;5026638;28;20199;-51
2022/08/03 05:38:21;;;;;;;4.60;3.20;;;;;;;19.22;67.51;98651.56;5025409;28;20209;-51
2022/08/03 05:40:49;;;;;;;3.90;3.50;;;;;;;19.23;68.13;98648.69;5009375;28;20636;-52
2022/08/03 05:43:15;;;;;;;4.23;2.90;;;;;;;19.27;67.83;98646.47;5025161;28;20195;-51
2022/08/03 05:45:43;;;;;;;5.67;3.13;;;;;;;19.29;67.43;98650.50;5006564;28;20213;-51
2022/08/03 05:48:09;;;;;;;4.93;3.33;;;;;;;19.32;67.36;98658.03;5031616;28;20682;-51
2022/08/03 05:50:36;;;;;;;7.23;3.47;;;;;;;19.36;68.53;98658.44;5023313;28;20206;-51
2022/08/03 05:53:03;;;;;;;5.37;3.30;;;;;;;19.37;68.16;98648.66;5026844;28;20218;-51
2022/08/03 05:55:30;;;;;;;4.13;3.67;;;;;;;19.39;68.37;98644.81;5028115;28;20547;-53
2022/08/03 05:57:58;;;;;;;5.40;3.00;;;;;;;19.43;68.70;98653.13;5011898;28;20204;-54
2022/08/03 06:00:25;;;;;;;3.90;3.40;;;;;;;19.45;68.72;98646.63;5026484;28;20197;-52
2022/08/03 06:02:52;;;;;;;8.20;3.63;;;;;;;19.50;68.27;98653.94;5020961;28;20218;-51
2022/08/03 06:05:19;;;;;;;5.63;3.67;;;;;;;19.55;68.30;98651.47;5030634;28;20539;-50
2022/08/03 06:07:46;;;;;;;3.20;2.90;;;;;;;19.61;68.49;98655.09;5029086;28;20197;-53
2022/08/03 06:10:13;;;;;;;5.23;3.20;;;;;;;19.70;68.11;98650.41;5024126;28;20185;-50
2022/08/03 06:12:40;;;;;;;3.30;3.00;;;;;;;19.78;67.56;98650.16;5025932;28;20187;-52
2022/08/03 06:15:09;;;;;;;6.20;3.33;;;;;;;19.87;67.57;98646.25;5019425;28;20223;-50
2022/08/03 06:17:44;;;;;;;3.40;2.97;;;;;;;19.99;67.17;98642.97;5021047;28;21121;-50
2022/08/03 06:20:12;;;;;;;3.40;3.10;;;;;;;20.10;66.46;98646.78;5022663;28;20203;-51
2022/08/03 06:22:38;;;;;;;5.57;3.83;;;;;;;20.18;65.56;98644.69;5022645;28;20212;-50
2022/08/03 06:25:06;;;;;;;7.70;3.50;;;;;;;20.28;65.23;98648.69;5022011;28;20699;-50
2022/08/03 06:27:32;;;;;;;9.03;3.83;;;;;;;20.39;64.50;98648.03;5022845;28;20198;-53
2022/08/03 06:29:59;;;;;;;4.73;3.63;;;;;;;20.53;63.96;98659.38;5027157;28;20565;-50
2022/08/03 06:32:27;;;;;;;4.40;3.67;;;;;;;20.65;64.03;98649.69;5023331;28;20197;-51
2022/08/03 06:34:54;;;;;;;4.70;4.03;;;;;;;20.82;63.54;98654.47;5022485;28;20723;-50
2022/08/03 06:37:22;;;;;;;5.77;3.60;;;;;;;20.97;62.95;98655.97;5027881;28;20673;-50
2022/08/03 06:39:48;;;;;;;4.97;3.60;;;;;;;21.20;62.82;98663.31;5027695;28;20247;-50
2022/08/03 06:42:15;;;;;;;6.43;4.60;;;;;;;21.36;62.89;98667.25;5027798;28;20203;-50
2022/08/03 06:44:42;;;;;;;4.97;4.43;;;;;;;21.56;62.03;98664.34;5030710;28;20229;-50
2022/08/03 06:47:09;;;;;;;5.47;4.50;;;;;;;21.71;61.63;98664.03;5029033;28;20189;-50
2022/08/03 06:49:37;;;;;;;6.53;4.20;;;;;;;21.82;61.64;98671.22;5027685;28;20209;-49
2022/08/03 06:52:04;;;;;;;9.17;4.97;;;;;;;21.95;60.87;98664.94;5028293;28;20185;-50
2022/08/03 06:54:31;;;;;;;4.70;4.03;;;;;;;22.14;60.24;98669.41;5028865;28;20190;-50
2022/08/03 06:56:57;;;;;;;7.10;4.33;;;;;;;22.19;60.07;98667.72;5026273;28;20212;-51
2022/08/03 06:59:24;;;;;;;5.13;4.47;;;;;;;22.33;59.71;98675.47;5029016;28;20225;-50
2022/08/03 07:01:51;;;;;;;8.33;4.80;;;;;;;22.35;60.44;98679.53;5029475;28;20202;-50
2022/08/03 07:04:18;;;;;;;7.63;4.60;;;;;;;22.44;59.21;98680.03;5031381;28;20201;-51
2022/08/03 07:06:46;;;;;;;5.97;4.87;;;;;;;22.50;59.24;98688.97;5027783;28;20195;-53
2022/08/03 07:09:12;;;;;;;6.40;4.63;;;;;;;22.55;58.76;98675.81;5030389;28;20562;-52
2022/08/03 07:11:39;;;;;;;7.60;4.63;;;;;;;22.69;58.96;98687.03;5028642;28;20206;-50
2022/08/03 07:14:06;;;;;;;6.53;4.87;;;;;;;22.70;59.30;98688.66;5027368;28;20277;-51
2022/08/03 07:16:32;;;;;;;5.67;4.67;;;;;;;22.78;59.26;98688.34;5031543;28;20187;-50
2022/08/03 07:18:59;;;;;;;8.07;4.50;;;;;;;22.81;58.83;98684.38;5028985;28;20237;-51
2022/08/03 07:21:26;;;;;;;8.07;5.30;;;;;;;22.80;59.65;98691.56;5033172;28;20218;-51
2022/08/03 07:23:54;;;;;;;5.97;4.57;;;;;;;22.91;60.48;98695.28;5031204;28;20203;-51
2022/08/03 07:26:21;;;;;;;30.40;5.00;;;;;;;22.90;60.07;98685.69;5026897;28;20206;-54
2022/08/03 07:28:48;;;;;;;5.90;5.30;;;;;;;23.02;59.61;98687.53;5013880;28;20242;-50
2022/08/03 07:31:15;;;;;;;8.63;5.10;;;;;;;23.11;59.58;98683.50;5028602;28;20196;-51
2022/08/03 07:33:41;;;;;;;8.13;4.87;;;;;;;23.19;59.33;98693.00;5031518;28;20212;-54
2022/08/03 07:36:08;;;;;;;6.33;4.63;;;;;;;23.35;58.15;98683.50;5030800;28;20192;-53
2022/08/03 07:38:35;;;;;;;5.63;5.03;;;;;;;23.39;57.46;98688.13;5026720;28;20215;-51
2022/08/03 07:41:04;;;;;;;7.63;5.13;;;;;;;23.52;57.09;98684.44;5033011;28;20200;-52
2022/08/03 07:43:30;;;;;;;7.17;5.13;;;;;;;23.63;56.68;98689.97;5031483;28;20216;-51
2022/08/03 07:45:57;;;;;;;9.43;5.37;;;;;;;23.70;56.70;98695.97;5034087;28;20199;-51
2022/08/03 07:48:24;;;;;;;9.23;5.87;;;;;;;23.81;56.23;98691.66;5029674;28;20218;-51
2022/08/03 07:50:51;;;;;;;6.63;4.70;;;;;;;23.71;54.93;98687.72;5011656;28;20209;-52
2022/08/03 07:53:18;;;;;;;8.57;4.50;;;;;;;23.88;56.05;98692.34;5032753;28;20726;-53
2022/08/03 07:55:45;;;;;;;8.57;5.33;;;;;;;23.98;56.22;98686.38;5030960;28;20197;-55
2022/08/03 07:58:16;;;;;;;13.03;5.60;;;;;;;24.17;55.82;98689.72;5031304;28;21325;-54
2022/08/03 08:00:44;;;;;;;9.07;4.70;;;;;;;24.30;55.23;98691.25;5031226;28;20195;-52
2022/08/03 08:03:11;;;;;;;6.40;4.80;;;;;;;24.29;54.88;98694.97;5029100;28;20248;-51
2022/08/03 08:05:37;;;;;;;5.90;5.00;;;;;;;24.36;54.54;98686.84;5031419;28;20210;-53
2022/08/03 08:08:05;;;;;;;6.77;4.80;;;;;;;24.46;54.35;98687.00;5028737;28;20309;-51
2022/08/03 08:10:32;;;;;;;5.83;4.67;;;;;;;24.51;53.99;98686.28;5016474;28;20252;-53
2022/08/03 08:12:59;;;;;;;9.87;4.63;;;;;;;24.57;53.90;98688.00;5032995;28;20652;-52
2022/08/03 08:15:27;;;;;;;9.70;5.00;;;;;;;24.56;53.65;98673.03;5025987;28;20192;-50
2022/08/03 08:17:56;;;;;;;7.27;4.70;;;;;;;24.66;52.43;98683.06;5028427;28;20194;-50
2022/08/03 08:20:25;;;;;;;7.30;4.70;;;;;;;24.83;52.36;98680.44;5012566;28;20219;-52
2022/08/03 08:22:52;;;;;;;5.77;5.10;;;;;;;24.86;52.11;98685.28;5031760;28;20219;-50
2022/08/03 08:25:19;;;;;;;9.80;5.00;;;;;;;24.90;52.03;98686.44;5033487;28;20518;-51
2022/08/03 08:27:48;;;;;;;8.97;5.13;;;;;;;24.88;51.38;98683.97;5028723;28;20201;-53
2022/08/03 08:30:17;;;;;;;6.83;4.40;;;;;;;24.94;51.24;98689.41;5027945;28;20541;-51
2022/08/03 08:32:46;;;;;;;6.10;4.23;;;;;;;25.07;51.07;98697.09;5025766;28;20201;-51
2022/08/03 08:35:13;;;;;;;4.80;3.87;;;;;;;25.15;50.13;98694.00;5032623;28;20201;-52
2022/08/03 08:37:40;;;;;;;7.13;4.50;;;;;;;25.22;49.32;98687.69;5024018;28;20192;-52
2022/08/03 08:40:08;;;;;;;6.40;4.30;;;;;;;25.38;49.08;98689.50;5030645;28;20212;-52
2022/08/03 08:42:37;;;;;;;5.50;4.07;;;;;;;25.41;47.36;98693.53;5023267;28;20221;-51
2022/08/03 08:45:07;;;;;;;7.27;4.10;;;;;;;25.44;47.89;98701.06;5021704;28;20194;-53
2022/08/03 08:47:37;;;;;;;5.50;3.50;;;;;;;25.42;47.66;98700.50;5030065;28;20254;-51
2022/08/03 08:50:07;;;;;;;5.50;3.90;;;;;;;25.45;48.57;98692.81;5022810;28;20320;-51
2022/08/03 08:52:35;;;;;;;5.67;4.33;;;;;;;25.63;48.37;98693.56;5023279;28;20551;-48
2022/08/03 08:55:06;;;;;;;5.10;4.30;;;;;;;25.64;48.72;98689.84;5024589;28;20262;-50
2022/08/03 08:57:36;;;;;;;7.37;4.00;;;;;;;25.73;48.42;98683.00;5019010;28;20199;-49
2022/08/03 09:00:05;;;;;;;6.63;4.20;;;;;;;25.87;47.60;98693.34;5020442;28;20760;-49
2022/08/03 09:02:32;;;;;;;6.70;4.65;;;;;;;25.93;47.71;98695.00;5021963;28;20533;-49
2022/08/03 09:05:00;;;;;;;6.90;4.20;;;;;;;25.87;48.11;98685.31;5022181;28;20194;-50
2022/08/03 09:07:29;;;;;;;5.43;4.10;;;;;;;26.01;47.80;98691.06;5020475;28;20197;-48
2022/08/03 09:09:56;;;;;;;6.47;3.93;;;;;;;26.13;47.34;98690.94;5023313;28;20214;-50
2022/08/03 09:12:23;;;;;;;7.00;4.47;;;;;;;26.20;47.56;98691.59;5028205;28;20334;-52
2022/08/03 09:14:49;;;;;;;8.33;3.70;;;;;;;26.40;46.90;98690.16;5028880;28;20244;-53
2022/08/03 09:17:16;;;;;;;9.57;4.00;;;;;;;26.52;46.61;98688.94;5027517;28;20218;-52
2022/08/03 09:19:43;;;;;;;6.27;3.97;;;;;;;26.63;46.13;98689.03;5021178;28;20316;-54
2022/08/03 09:22:11;;;;;;;5.72;4.03;;;;;;;26.76;46.11;98690.47;5026147;28;20210;-54
2022/08/03 09:24:55;;;;;;;4.90;4.15;;;;;;;26.84;45.79;98689.22;5020951;28;20647;-53
2022/08/03 09:27:23;;;;;;;5.47;4.00;;;;;;;26.74;45.79;98689.91;5018200;28;20610;-50
2022/08/03 09:29:52;;;;;;;5.80;3.93;;;;;;;26.89;45.87;98692.72;5018957;28;20783;-52
2022/08/03 09:32:21;;;;;;;8.95;4.07;;;;;;;27.02;45.42;98688.81;5019266;28;20193;-52
2022/08/03 09:34:49;;;;;;;4.65;3.78;;;;;;;27.06;45.66;98683.75;5019456;28;20194;-54
2022/08/03 09:37:18;;;;;;;3.93;3.50;;;;;;;27.17;44.49;98685.41;5023716;28;20198;-51
2022/08/03 09:39:47;;;;;;;5.40;3.60;;;;;;;27.18;43.11;98688.88;5020510;28;20210;-53
2022/08/03 09:42:16;;;;;;;10.77;4.05;;;;;;;27.09;43.88;98685.91;5025613;28;20220;-52
2022/08/03 09:44:44;;;;;;;3.53;3.22;;;;;;;27.16;43.08;98682.97;5020902;28;20198;-51
2022/08/03 09:47:12;;;;;;;4.85;3.65;;;;;;;27.23;43.81;98684.38;5022229;28;20634;-50
2022/08/03 09:49:41;;;;;;;5.37;3.80;;;;;;;27.23;43.56;98680.88;5023430;28;20208;-50
2022/08/03 09:52:17;;;;;;;5.68;4.18;;;;;;;27.31;43.41;98668.88;5020914;28;20196;-50
2022/08/03 09:54:51;;;;;;;4.15;3.40;;;;;;;27.44;44.14;98675.63;5020997;28;20196;-51
2022/08/03 09:57:23;;;;;;;4.50;3.50;;;;;;;27.57;43.60;98674.38;5021738;28;20200;-50
2022/08/03 09:59:50;;;;;;;4.72;3.35;;;;;;;27.65;42.82;98666.66;5020707;28;20276;-50
2022/08/03 10:02:35;;;;;;;6.75;3.65;;;;;;;27.70;43.00;98671.22;5023256;28;20323;-51
2022/08/03 10:05:02;;;;;;;6.13;3.83;;;;;;;27.78;43.60;98665.34;5023421;28;20203;-50
2022/08/03 10:07:29;;;;;;;5.18;3.28;;;;;;;27.94;42.14;98673.44;5021373;28;20262;-50
2022/08/03 10:09:59;;;;;;;5.03;3.47;;;;;;;27.94;41.78;98668.06;5024007;28;20267;-50
2022/08/03 10:12:26;;;;;;;7.55;3.60;;;;;;;28.05;42.69;98661.66;5023085;28;20191;-49
2022/08/03 10:14:53;;;;;;;6.33;3.90;;;;;;;28.22;42.29;98666.00;5022579;28;20198;-54
2022/08/03 10:17:21;;;;;;;3.90;3.50;;;;;;;28.27;42.48;98657.97;5021140;28;20201;-53
2022/08/03 10:19:48;;;;;;;3.65;3.35;;;;;;;28.38;41.88;98654.22;5023126;28;20230;-53
2022/08/03 10:22:16;;;;;;;4.47;3.10;;;;;;;28.44;41.34;98657.69;5020733;28;20203;-50
2022/08/03 10:24:52;;;;;;;6.82;3.63;;;;;;;28.59;40.55;98646.16;5021021;28;20645;-51
2022/08/03 10:27:22;;;;;;;3.10;2.80;;;;;;;28.68;40.31;98647.22;5016711;28;20201;-50
2022/08/03 10:29:53;;;;;;;2.80;2.50;;;;;;;28.76;39.56;98648.59;5022180;28;20675;-50
2022/08/03 10:32:24;;;;;;;4.15;2.72;;;;;;;28.78;39.55;98649.13;5020006;28;20256;-51
2022/08/03 10:34:54;;;;;;;3.33;2.63;;;;;;;28.76;38.60;98645.91;5021455;28;20198;-52
2022/08/03 10:37:24;;;;;;;5.32;2.22;;;;;;;28.85;38.25;98648.84;5023009;28;20201;-52
2022/08/03 10:39:55;;;;;;;3.95;2.10;;;;;;;28.98;39.17;98642.13;5021025;28;20220;-51
2022/08/03 10:42:26;;;;;;;2.47;2.17;;;;;;;28.85;38.00;98633.53;5020517;28;20192;-50
2022/08/03 10:45:03;;;;;;;5.68;2.75;;;;;;;28.78;38.69;98629.50;5020380;28;20668;-53
2022/08/03 10:47:30;;;;;;;3.80;2.25;;;;;;;28.97;38.03;98637.81;5020402;28;20201;-50
2022/08/03 10:49:58;;;;;;;2.70;2.47;;;;;;;29.15;38.19;98639.91;5020233;28;20278;-51
2022/08/03 10:52:25;;;;;;;2.60;2.40;;;;;;;29.17;38.60;98637.75;5021274;28;20202;-52
2022/08/03 10:57:51;;;;;;;3.05;2.75;;;;;;;29.36;37.65;98631.78;5022484;28;20678;-51
2022/08/03 11:00:19;;;;;;;3.60;2.70;;;;;;;29.49;38.10;98618.84;5021581;28;20681;-52
2022/08/03 11:03:02;;;;;;;4.00;2.70;;;;;;;29.54;38.30;98627.69;5019614;28;20216;-50
2022/08/03 11:05:31;;;;;;;3.42;2.60;;;;;;;29.69;37.73;98617.91;5023115;28;20197;-51
2022/08/03 11:08:23;;;;;;;4.88;2.70;;;;;;;29.83;37.36;98626.19;5022590;28;20188;-52
2022/08/03 11:10:52;;;;;;;4.05;2.63;;;;;;;29.98;38.86;98620.75;5021233;28;20570;-52
2022/08/03 11:13:22;;;;;;;2.90;2.53;;;;;;;30.12;37.06;98615.53;5020485;28;20243;-50
2022/08/03 11:15:52;;;;;;;3.70;2.42;;;;;;;30.17;36.94;98612.81;5023171;28;20196;-50
2022/08/03 11:18:19;;;;;;;3.65;2.60;;;;;;;30.18;36.27;98619.00;5021232;28;20226;-50
2022/08/03 11:20:51;;;;;;;3.30;2.13;;;;;;;30.34;36.33;98622.38;5022231;28;20246;-53
2022/08/03 11:23:20;;;;;;;4.07;2.58;;;;;;;30.37;36.49;98612.91;5019809;28;20200;-50
2022/08/03 11:26:16;;;;;;;2.47;2.28;;;;;;;30.48;36.10;98612.56;5025020;28;20212;-53
2022/08/03 11:28:46;;;;;;;3.60;2.40;;;;;;;30.67;36.04;98609.19;5026190;28;20277;-53
2022/08/03 11:31:44;;;;;;;3.53;2.30;;;;;;;30.62;35.26;98620.00;5024244;28;20200;-51
2022/08/03 11:34:12;;;;;;;5.90;2.70;;;;;;;30.58;35.21;98616.28;5025715;28;20198;-51
2022/08/03 11:37:12;;;;;;;3.50;2.60;;;;;;;30.51;35.74;98618.47;5023249;28;20196;-50
2022/08/03 11:39:39;;;;;;;2.67;2.40;;;;;;;30.64;36.33;98604.38;5024899;28;20716;-50
2022/08/03 11:42:47;;;;;;;3.05;2.58;;;;;;;30.85;35.33;98609.53;5022815;28;20200;-50
2022/08/03 11:45:15;;;;;;;4.63;2.60;;;;;;;30.87;34.82;98618.13;5025054;28;20265;-50
2022/08/03 11:47:43;;;;;;;2.90;2.03;;;;;;;30.82;34.34;98618.19;5005334;28;20216;-52
2022/08/03 11:50:10;;;;;;;6.97;2.33;;;;;;;30.85;34.89;98604.13;5025087;28;20220;-50
2022/08/03 11:52:41;;;;;;;2.42;2.20;;;;;;;30.95;34.18;98608.63;5024396;28;20196;-50